createdAt,value
2022-09-22T00:00:22.992Z,1.90
2022-09-22T00:01:33.249Z,1.95
2022-09-22T00:02:36.239Z,1.75
2022-09-22T00:03:46.206Z,1.88
2022-09-22T00:04:49.100Z,2.00
2022-09-22T00:06:09.253Z,2.10
2022-09-22T00:07:12.400Z,2.10
2022-09-22T00:08:15.224Z,2.10
2022-09-22T00:09:21.546Z,2.55
2022-09-22T00:10:24.398Z,1.70
2022-09-22T00:11:30.764Z,2.15
2022-09-22T00:12:34.158Z,2.08
2022-09-22T00:13:37.153Z,2.08
2022-09-22T00:14:40.037Z,1.80
2022-09-22T00:15:46.474Z,2.28
2022-09-22T00:16:56.076Z,2.00
2022-09-22T00:17:59.143Z,1.85
2022-09-22T00:19:02.377Z,2.08
2022-09-22T00:20:06.702Z,2.42
2022-09-22T00:21:17.157Z,2.17
2022-09-22T00:22:20.220Z,2.00
2022-09-22T00:23:27.173Z,2.30
2022-09-22T00:24:31.256Z,2.25
2022-09-22T00:25:34.880Z,2.53
2022-09-22T00:26:39.292Z,1.98
2022-09-22T00:27:42.182Z,2.15
2022-09-22T00:28:47.447Z,2.08
2022-09-22T00:29:51.644Z,1.92
2022-09-22T00:30:54.830Z,2.13
2022-09-22T00:31:59.615Z,2.08
2022-09-22T00:33:05.276Z,1.85
2022-09-22T00:34:13.839Z,2.10
2022-09-22T00:35:16.819Z,2.53
2022-09-22T00:36:22.744Z,2.60
2022-09-22T00:37:25.730Z,1.85
2022-09-22T00:38:29.403Z,1.98
2022-09-22T00:39:32.409Z,1.83
2022-09-22T00:40:37.426Z,1.90
2022-09-22T00:41:44.949Z,2.30
2022-09-22T00:42:49.658Z,2.05
2022-09-22T00:44:21.160Z,2.20
2022-09-22T00:45:24.516Z,2.08
2022-09-22T00:46:28.838Z,2.15
2022-09-22T00:47:43.404Z,1.77
2022-09-22T00:48:57.820Z,2.15
2022-09-22T00:50:22.159Z,1.80
2022-09-22T00:51:29.527Z,2.20
2022-09-22T00:52:40.756Z,2.28
2022-09-22T00:53:44.878Z,2.10
2022-09-22T00:54:52.834Z,1.92
2022-09-22T00:56:14.299Z,1.80
2022-09-22T00:57:27.111Z,2.17
2022-09-22T00:58:42.389Z,2.30
2022-09-22T00:59:50.584Z,1.92
2022-09-22T01:00:53.785Z,2.78
2022-09-22T01:01:56.758Z,1.65
2022-09-22T01:03:03.606Z,1.90
2022-09-22T01:04:07.813Z,2.30
2022-09-22T01:05:11.014Z,2.05
2022-09-22T01:06:28.108Z,2.25
2022-09-22T01:07:31.830Z,2.00
2022-09-22T01:08:37.596Z,2.20
2022-09-22T01:09:40.636Z,2.38
2022-09-22T01:10:44.688Z,2.40
2022-09-22T01:11:47.908Z,2.25
2022-09-22T01:13:39.383Z,1.88
2022-09-22T01:15:12.423Z,1.95
2022-09-22T01:17:09.503Z,2.03
2022-09-22T01:19:31.739Z,2.00
2022-09-22T01:21:33.804Z,2.63
2022-09-22T01:23:00.577Z,2.13
2022-09-22T01:24:22.658Z,2.40
2022-09-22T01:25:55.764Z,2.30
2022-09-22T01:27:28.374Z,2.38
2022-09-22T01:29:11.249Z,2.83
2022-09-22T01:30:22.989Z,2.50
2022-09-22T01:32:18.317Z,2.80
2022-09-22T01:33:45.794Z,2.78
2022-09-22T01:35:27.852Z,2.95
2022-09-22T01:36:52.656Z,2.42
2022-09-22T01:38:23.110Z,2.38
2022-09-22T01:39:45.725Z,2.70
2022-09-22T01:41:09.687Z,3.78
2022-09-22T01:42:29.620Z,2.28
2022-09-22T01:43:47.967Z,2.50
2022-09-22T01:45:08.790Z,3.10
2022-09-22T01:46:25.821Z,2.95
2022-09-22T01:47:45.061Z,2.80
2022-09-22T01:48:52.320Z,2.28
2022-09-22T01:50:03.100Z,2.92
2022-09-22T01:51:12.321Z,2.47
2022-09-22T01:52:27.062Z,3.00
2022-09-22T01:53:52.373Z,3.33
2022-09-22T01:55:06.915Z,3.25
2022-09-22T01:56:13.043Z,2.78
2022-09-22T01:57:47.238Z,3.60
2022-09-22T01:58:57.923Z,3.38
2022-09-22T02:01:19.697Z,3.10
2022-09-22T02:02:34.151Z,3.05
2022-09-22T02:04:29.343Z,3.42
2022-09-22T02:05:50.387Z,4.05
2022-09-22T02:08:10.080Z,3.17
2022-09-22T02:09:18.900Z,3.35
2022-09-22T02:10:32.210Z,3.28
2022-09-22T02:11:35.614Z,3.17
2022-09-22T02:12:39.538Z,3.63
2022-09-22T02:13:44.202Z,3.45
2022-09-22T02:14:47.631Z,3.55
2022-09-22T02:16:02.823Z,3.83
2022-09-22T02:17:05.751Z,3.42
2022-09-22T02:18:20.031Z,3.33
2022-09-22T02:19:50.628Z,3.95
2022-09-22T02:20:53.699Z,2.97
2022-09-22T02:21:56.978Z,3.63
2022-09-22T02:22:59.786Z,3.22
2022-09-22T02:24:02.805Z,3.22
2022-09-22T02:25:06.694Z,3.38
2022-09-22T02:26:10.876Z,3.15
2022-09-22T02:27:35.532Z,3.60
2022-09-22T02:28:41.441Z,3.45
2022-09-22T02:29:55.029Z,3.28
2022-09-22T02:31:19.041Z,3.58
2022-09-22T02:32:24.038Z,3.78
2022-09-22T02:33:28.435Z,4.53
2022-09-22T02:34:31.996Z,3.72
2022-09-22T02:35:39.301Z,4.10
2022-09-22T02:37:03.491Z,3.97
2022-09-22T02:38:23.786Z,4.10
2022-09-22T02:40:07.286Z,3.13
2022-09-22T02:41:40.733Z,3.70
2022-09-22T02:42:56.434Z,3.72
2022-09-22T02:44:05.728Z,4.13
2022-09-22T02:45:29.608Z,3.55
2022-09-22T02:46:48.892Z,4.22
2022-09-22T02:47:53.331Z,3.22
2022-09-22T02:49:05.064Z,3.83
2022-09-22T02:50:12.015Z,4.20
2022-09-22T02:51:16.395Z,4.10
2022-09-22T02:52:23.321Z,4.05
2022-09-22T02:53:26.179Z,3.58
2022-09-22T02:54:29.297Z,3.55
2022-09-22T02:55:32.348Z,3.67
2022-09-22T02:56:35.745Z,3.63
2022-09-22T02:57:39.080Z,3.63
2022-09-22T02:58:41.978Z,3.58
2022-09-22T02:59:44.836Z,3.63
2022-09-22T03:00:47.759Z,3.58
2022-09-22T03:01:50.646Z,4.05
2022-09-22T03:02:53.713Z,3.10
2022-09-22T03:03:56.585Z,4.03
2022-09-22T03:04:59.596Z,3.80
2022-09-22T03:06:02.639Z,3.70
2022-09-22T03:07:07.063Z,4.05
2022-09-22T03:08:10.021Z,3.50
2022-09-22T03:09:13.100Z,3.50
2022-09-22T03:10:16.323Z,4.28
2022-09-22T03:11:19.224Z,3.58
2022-09-22T03:12:22.149Z,4.05
2022-09-22T03:13:25.004Z,3.17
2022-09-22T03:14:27.953Z,3.22
2022-09-22T03:15:31.266Z,3.20
2022-09-22T03:16:34.867Z,4.00
2022-09-22T03:17:38.437Z,2.92
2022-09-22T03:18:41.253Z,3.25
2022-09-22T03:19:44.148Z,3.15
2022-09-22T03:20:47.184Z,3.65
2022-09-22T03:21:50.261Z,3.47
2022-09-22T03:22:53.267Z,3.00
2022-09-22T03:23:56.135Z,3.67
2022-09-22T03:24:59.465Z,2.90
2022-09-22T03:26:02.581Z,3.03
2022-09-22T03:27:05.597Z,3.10
2022-09-22T03:28:08.583Z,2.78
2022-09-22T03:29:11.549Z,3.42
2022-09-22T03:30:15.064Z,3.40
2022-09-22T03:31:17.882Z,4.03
2022-09-22T03:32:22.348Z,3.55
2022-09-22T03:33:25.588Z,3.65
2022-09-22T03:34:28.784Z,3.00
2022-09-22T03:35:31.756Z,3.20
2022-09-22T03:36:35.196Z,2.60
2022-09-22T03:37:38.109Z,3.10
2022-09-22T03:38:41.157Z,3.72
2022-09-22T03:39:44.273Z,3.13
2022-09-22T03:40:52.403Z,3.05
2022-09-22T03:41:55.477Z,3.75
2022-09-22T03:42:58.516Z,2.90
2022-09-22T03:44:01.782Z,3.10
2022-09-22T03:45:05.231Z,3.60
2022-09-22T03:46:08.174Z,3.67
2022-09-22T03:47:11.201Z,3.90
2022-09-22T03:48:14.259Z,3.05
2022-09-22T03:49:17.299Z,3.78
2022-09-22T03:50:21.130Z,4.03
2022-09-22T03:51:24.176Z,3.42
2022-09-22T03:52:27.413Z,3.47
2022-09-22T03:53:30.302Z,3.97
2022-09-22T03:54:33.512Z,3.72
2022-09-22T03:55:37.253Z,3.42
2022-09-22T03:56:40.163Z,3.15
2022-09-22T03:57:43.876Z,3.47
2022-09-22T03:58:46.699Z,4.25
2022-09-22T03:59:49.870Z,3.78
2022-09-22T04:00:52.736Z,3.17
2022-09-22T04:01:58.238Z,3.55
2022-09-22T04:03:01.422Z,3.03
2022-09-22T04:04:04.767Z,2.80
2022-09-22T04:05:08.372Z,3.42
2022-09-22T04:06:11.727Z,3.90
2022-09-22T04:07:14.627Z,3.25
2022-09-22T04:08:18.138Z,3.40
2022-09-22T04:09:21.122Z,2.92
2022-09-22T04:10:23.935Z,3.13
2022-09-22T04:11:27.457Z,3.22
2022-09-22T04:12:30.609Z,3.30
2022-09-22T04:13:34.338Z,3.22
2022-09-22T04:14:37.375Z,2.92
2022-09-22T04:15:40.675Z,3.30
2022-09-22T04:16:43.883Z,3.20
2022-09-22T04:17:47.189Z,3.63
2022-09-22T04:18:50.302Z,3.30
2022-09-22T04:19:55.295Z,3.17
2022-09-22T04:20:59.181Z,3.22
2022-09-22T04:22:04.118Z,2.80
2022-09-22T04:23:07.291Z,2.75
2022-09-22T04:24:11.440Z,2.95
2022-09-22T04:25:14.348Z,3.33
2022-09-22T04:26:17.298Z,2.80
2022-09-22T04:27:21.048Z,3.53
2022-09-22T04:28:24.275Z,2.92
2022-09-22T04:29:27.108Z,3.15
2022-09-22T04:30:30.821Z,2.83
2022-09-22T04:31:33.591Z,3.42
2022-09-22T04:32:36.484Z,2.60
2022-09-22T04:33:39.338Z,3.35
2022-09-22T04:34:43.349Z,3.08
2022-09-22T04:35:48.173Z,3.25
2022-09-22T04:36:51.372Z,2.95
2022-09-22T04:37:55.691Z,3.38
2022-09-22T04:39:03.230Z,3.60
2022-09-22T04:40:06.874Z,3.42
2022-09-22T04:41:09.925Z,3.70
2022-09-22T04:42:12.726Z,3.13
2022-09-22T04:43:16.059Z,3.45
2022-09-22T04:44:19.106Z,3.08
2022-09-22T04:45:22.413Z,2.88
2022-09-22T04:46:26.958Z,3.58
2022-09-22T04:47:30.484Z,3.70
2022-09-22T04:48:33.337Z,3.88
2022-09-22T04:49:36.235Z,3.25
2022-09-22T04:50:39.240Z,3.67
2022-09-22T04:51:42.209Z,3.65
2022-09-22T04:52:52.332Z,2.78
2022-09-22T04:53:55.192Z,3.10
2022-09-22T04:54:58.192Z,3.80
2022-09-22T04:56:01.466Z,3.53
2022-09-22T04:57:04.580Z,3.10
2022-09-22T04:58:07.855Z,3.22
2022-09-22T04:59:11.853Z,2.88
2022-09-22T05:00:15.184Z,3.30
2022-09-22T05:01:18.206Z,3.33
2022-09-22T05:02:21.213Z,3.17
2022-09-22T05:03:24.199Z,2.97
2022-09-22T05:04:27.347Z,3.17
2022-09-22T05:05:30.333Z,2.95
2022-09-22T05:06:33.315Z,3.55
2022-09-22T05:07:36.326Z,3.40
2022-09-22T05:08:39.233Z,3.22
2022-09-22T05:09:42.175Z,3.83
2022-09-22T05:10:46.129Z,3.10
2022-09-22T05:11:49.051Z,3.33
2022-09-22T05:12:53.709Z,3.70
2022-09-22T05:13:57.908Z,3.30
2022-09-22T05:15:00.886Z,3.15
2022-09-22T05:16:05.774Z,3.70
2022-09-22T05:17:08.676Z,3.60
2022-09-22T05:18:11.783Z,3.63
2022-09-22T05:19:14.679Z,3.65
2022-09-22T05:20:19.597Z,4.05
2022-09-22T05:21:22.617Z,3.67
2022-09-22T05:22:25.423Z,3.40
2022-09-22T05:23:28.748Z,3.78
2022-09-22T05:24:32.448Z,3.63
2022-09-22T05:25:35.487Z,4.05
2022-09-22T05:26:38.682Z,3.55
2022-09-22T05:27:54.996Z,3.55
2022-09-22T05:28:58.200Z,3.47
2022-09-22T05:30:01.075Z,3.95
2022-09-22T05:31:04.837Z,3.70
2022-09-22T05:32:07.748Z,4.03
2022-09-22T05:33:10.722Z,4.20
2022-09-22T05:34:13.820Z,3.72
2022-09-22T05:35:23.537Z,3.38
2022-09-22T05:36:26.502Z,3.58
2022-09-22T05:37:29.734Z,4.20
2022-09-22T05:38:32.577Z,4.50
2022-09-22T05:39:35.394Z,4.15
2022-09-22T05:40:38.633Z,3.58
2022-09-22T05:41:41.831Z,4.07
2022-09-22T05:42:46.945Z,3.65
2022-09-22T05:43:49.827Z,3.83
2022-09-22T05:44:52.862Z,3.38
2022-09-22T05:45:56.042Z,3.33
2022-09-22T05:46:59.095Z,3.90
2022-09-22T05:48:02.197Z,3.58
2022-09-22T05:49:04.976Z,3.83
2022-09-22T05:50:10.143Z,4.05
2022-09-22T05:51:12.937Z,3.90
2022-09-22T05:52:15.986Z,3.40
2022-09-22T05:53:19.026Z,4.13
2022-09-22T05:54:23.490Z,3.90
2022-09-22T05:55:26.783Z,3.58
2022-09-22T05:56:32.264Z,4.35
2022-09-22T05:57:35.462Z,3.72
2022-09-22T05:58:38.582Z,4.03
2022-09-22T05:59:41.447Z,3.67
2022-09-22T06:00:44.368Z,4.32
2022-09-22T06:01:47.729Z,4.50
2022-09-22T06:02:50.666Z,4.25
2022-09-22T06:03:54.070Z,3.88
2022-09-22T06:04:57.418Z,4.22
2022-09-22T06:06:00.344Z,3.45
2022-09-22T06:07:03.275Z,3.60
2022-09-22T06:08:07.000Z,3.65
2022-09-22T06:09:09.938Z,4.15
2022-09-22T06:10:12.910Z,4.35
2022-09-22T06:11:15.728Z,3.85
2022-09-22T06:12:19.196Z,3.58
2022-09-22T06:13:22.087Z,3.80
2022-09-22T06:14:25.032Z,3.60
2022-09-22T06:15:28.742Z,3.45
2022-09-22T06:16:31.990Z,2.85
2022-09-22T06:17:34.866Z,3.63
2022-09-22T06:18:37.786Z,3.72
2022-09-22T06:19:41.745Z,3.85
2022-09-22T06:20:45.232Z,3.75
2022-09-22T06:21:48.245Z,3.65
2022-09-22T06:22:51.281Z,3.45
2022-09-22T06:23:54.301Z,4.30
2022-09-22T06:24:57.587Z,4.30
2022-09-22T06:26:00.893Z,3.78
2022-09-22T06:27:03.821Z,3.58
2022-09-22T06:28:09.750Z,3.35
2022-09-22T06:29:12.529Z,3.38
2022-09-22T06:30:15.347Z,3.75
2022-09-22T06:31:18.403Z,3.85
2022-09-22T06:32:21.371Z,3.88
2022-09-22T06:33:24.221Z,3.20
2022-09-22T06:34:27.354Z,3.53
2022-09-22T06:35:36.705Z,3.30
2022-09-22T06:36:45.314Z,3.08
2022-09-22T06:37:56.389Z,3.60
2022-09-22T06:39:00.491Z,3.30
2022-09-22T06:40:04.696Z,3.78
2022-09-22T06:41:08.382Z,3.80
2022-09-22T06:42:11.403Z,3.53
2022-09-22T06:43:22.613Z,3.30
2022-09-22T06:44:25.840Z,3.50
2022-09-22T06:45:30.372Z,3.50
2022-09-22T06:46:34.924Z,3.85
2022-09-22T06:47:38.161Z,3.47
2022-09-22T06:48:41.043Z,3.60
2022-09-22T06:49:44.044Z,3.45
2022-09-22T06:50:53.623Z,3.47
2022-09-22T06:51:56.666Z,3.88
2022-09-22T06:53:07.322Z,3.35
2022-09-22T06:54:10.081Z,2.85
2022-09-22T06:55:12.963Z,2.83
2022-09-22T06:56:15.873Z,3.15
2022-09-22T06:57:19.090Z,3.15
2022-09-22T06:58:22.694Z,3.33
2022-09-22T06:59:25.898Z,3.40
2022-09-22T07:00:33.934Z,3.28
2022-09-22T07:01:37.670Z,3.15
2022-09-22T07:02:40.683Z,3.65
2022-09-22T07:03:44.560Z,2.92
2022-09-22T07:04:48.353Z,3.60
2022-09-22T07:05:58.406Z,3.20
2022-09-22T07:07:04.033Z,3.17
2022-09-22T07:08:07.090Z,3.20
2022-09-22T07:09:10.295Z,3.15
2022-09-22T07:10:13.164Z,3.10
2022-09-22T07:11:23.709Z,3.42
2022-09-22T07:12:26.841Z,2.75
2022-09-22T07:13:32.241Z,3.33
2022-09-22T07:14:35.296Z,3.28
2022-09-22T07:15:38.202Z,2.67
2022-09-22T07:16:41.734Z,3.08
2022-09-22T07:17:44.671Z,3.22
2022-09-22T07:18:51.261Z,3.30
2022-09-22T07:19:56.366Z,3.03
2022-09-22T07:21:22.769Z,2.92
2022-09-22T07:22:26.909Z,2.45
2022-09-22T07:23:29.832Z,2.67
2022-09-22T07:24:32.799Z,2.88
2022-09-22T07:25:35.986Z,2.67
2022-09-22T07:26:40.085Z,3.13
2022-09-22T07:27:43.354Z,2.72
2022-09-22T07:28:50.370Z,2.55
2022-09-22T07:29:54.381Z,2.50
2022-09-22T07:31:08.249Z,2.85
2022-09-22T07:32:11.187Z,2.58
2022-09-22T07:33:14.581Z,2.55
2022-09-22T07:34:18.235Z,2.50
2022-09-22T07:35:21.449Z,2.75
2022-09-22T07:36:26.338Z,2.72
2022-09-22T07:37:33.212Z,2.90
2022-09-22T07:38:40.709Z,3.15
2022-09-22T07:39:45.700Z,2.15
2022-09-22T07:40:53.678Z,2.13
2022-09-22T07:41:56.655Z,2.90
2022-09-22T07:42:59.866Z,2.67
2022-09-22T07:44:23.205Z,2.45
2022-09-22T07:45:26.086Z,2.50
2022-09-22T07:46:29.135Z,2.58
2022-09-22T07:47:50.706Z,2.95
2022-09-22T07:48:53.511Z,2.97
2022-09-22T07:49:56.408Z,2.47
2022-09-22T07:51:00.254Z,2.92
2022-09-22T07:52:03.514Z,2.20
2022-09-22T07:53:06.332Z,2.83
2022-09-22T07:54:09.675Z,2.47
2022-09-22T07:55:12.535Z,2.70
2022-09-22T07:56:18.862Z,2.80
2022-09-22T07:57:21.856Z,2.55
2022-09-22T07:58:25.914Z,2.35
2022-09-22T07:59:28.876Z,2.50
2022-09-22T08:00:33.011Z,2.17
2022-09-22T08:01:39.795Z,2.42
2022-09-22T08:02:44.554Z,2.33
2022-09-22T08:03:48.119Z,2.45
2022-09-22T08:04:51.004Z,2.40
2022-09-22T08:06:10.418Z,2.03
2022-09-22T08:07:15.369Z,2.28
2022-09-22T08:08:18.376Z,2.70
2022-09-22T08:09:21.997Z,2.30
2022-09-22T08:10:26.235Z,2.15
2022-09-22T08:11:29.495Z,2.05
2022-09-22T08:12:32.656Z,2.13
2022-09-22T08:13:36.975Z,1.80
2022-09-22T08:14:39.906Z,1.92
2022-09-22T08:15:42.857Z,2.20
2022-09-22T08:16:46.109Z,2.10
2022-09-22T08:17:50.998Z,1.70
2022-09-22T08:18:58.871Z,1.70
2022-09-22T08:20:03.861Z,1.70
2022-09-22T08:21:07.977Z,1.80
2022-09-22T08:22:11.702Z,1.38
2022-09-22T08:23:14.751Z,1.75
2022-09-22T08:24:23.637Z,1.60
2022-09-22T08:25:26.804Z,1.70
2022-09-22T08:26:29.707Z,1.35
2022-09-22T08:27:34.583Z,1.45
2022-09-22T08:28:37.629Z,1.48
2022-09-22T08:29:40.551Z,1.48
2022-09-22T08:30:49.661Z,1.65
2022-09-22T08:31:54.245Z,1.27
2022-09-22T08:33:00.719Z,1.20
2022-09-22T08:34:06.057Z,1.27
2022-09-22T08:35:09.079Z,1.20
2022-09-22T08:36:12.987Z,1.30
2022-09-22T08:37:15.910Z,1.77
2022-09-22T08:38:18.845Z,1.52
2022-09-22T08:39:22.375Z,1.50
2022-09-22T08:40:25.258Z,1.85
2022-09-22T08:41:38.298Z,1.30
2022-09-22T08:42:43.298Z,1.08
2022-09-22T08:43:54.426Z,1.50
2022-09-22T08:45:26.168Z,1.50
2022-09-22T08:46:44.105Z,1.58
2022-09-22T08:48:14.429Z,1.45
2022-09-22T08:50:06.393Z,1.60
2022-09-22T08:51:39.467Z,1.38
2022-09-22T08:52:55.465Z,1.40
2022-09-22T08:54:03.103Z,1.55
2022-09-22T08:55:19.428Z,2.13
2022-09-22T08:56:33.538Z,2.33
2022-09-22T08:58:27.400Z,2.10
2022-09-22T08:59:55.311Z,1.58
2022-09-22T09:01:25.380Z,1.80
2022-09-22T09:03:14.247Z,1.50
2022-09-22T09:04:42.087Z,1.55
2022-09-22T09:06:09.267Z,2.20
2022-09-22T09:07:41.757Z,1.60
2022-09-22T09:09:14.085Z,1.73
2022-09-22T09:11:07.331Z,1.55
2022-09-22T09:12:36.251Z,1.42
2022-09-22T09:14:04.389Z,1.55
2022-09-22T09:15:13.918Z,1.65
2022-09-22T09:16:38.131Z,1.40
2022-09-22T09:17:46.544Z,1.30
2022-09-22T09:19:06.701Z,0.90
2022-09-22T09:20:45.875Z,0.90
2022-09-22T09:21:55.230Z,1.02
2022-09-22T09:22:59.772Z,1.05
2022-09-22T09:25:43.265Z,1.23
2022-09-22T09:26:49.686Z,1.40
2022-09-22T09:28:07.827Z,1.33
2022-09-22T09:29:22.073Z,0.98
2022-09-22T09:30:25.099Z,1.10
2022-09-22T09:31:53.300Z,1.02
2022-09-22T09:33:01.182Z,1.00
2022-09-22T09:34:14.443Z,1.20
2022-09-22T09:35:26.709Z,1.20
2022-09-22T09:37:27.463Z,0.88
2022-09-22T09:38:40.010Z,1.35
2022-09-22T09:39:44.725Z,1.00
2022-09-22T09:41:21.798Z,0.85
2022-09-22T09:42:33.308Z,1.13
2022-09-22T09:43:37.382Z,1.30
2022-09-22T09:44:40.400Z,1.30
2022-09-22T09:46:09.952Z,1.33
2022-09-22T09:47:32.683Z,1.20
2022-09-22T09:49:11.829Z,1.30
2022-09-22T09:50:16.106Z,1.13
2022-09-22T09:51:20.075Z,0.90
2022-09-22T09:52:27.041Z,1.80
2022-09-22T09:53:42.225Z,1.40
2022-09-22T09:54:48.072Z,1.30
2022-09-22T09:55:51.269Z,1.00
2022-09-22T09:57:16.064Z,0.90
2022-09-22T09:58:37.447Z,0.95
2022-09-22T10:00:32.065Z,0.70
2022-09-22T10:01:35.334Z,0.90
2022-09-22T10:03:02.960Z,0.75
2022-09-22T10:04:05.996Z,1.00
2022-09-22T10:05:37.584Z,0.95
2022-09-22T10:06:41.834Z,0.93
2022-09-22T10:07:48.843Z,0.85
2022-09-22T10:08:53.155Z,0.98
2022-09-22T10:10:16.507Z,0.82
2022-09-22T10:11:32.820Z,0.90
2022-09-22T10:12:35.955Z,0.88
2022-09-22T10:13:41.029Z,0.57
2022-09-22T10:14:54.319Z,0.50
2022-09-22T10:16:22.736Z,0.43
2022-09-22T10:17:31.149Z,0.70
2022-09-22T10:18:41.221Z,0.55
2022-09-22T10:19:44.337Z,0.70
2022-09-22T10:21:01.224Z,0.70
2022-09-22T10:22:28.112Z,0.88
2022-09-22T10:23:34.376Z,0.80
2022-09-22T10:24:37.700Z,0.82
2022-09-22T10:25:40.619Z,0.77
2022-09-22T10:26:57.499Z,0.82
2022-09-22T10:28:01.659Z,0.80
2022-09-22T10:29:12.298Z,0.70
2022-09-22T10:31:25.453Z,0.60
2022-09-22T10:32:28.822Z,0.90
2022-09-22T10:33:33.487Z,0.77
2022-09-22T10:36:12.062Z,0.82
2022-09-22T10:37:25.533Z,0.88
2022-09-22T10:38:29.397Z,0.80
2022-09-22T10:39:38.577Z,0.82
2022-09-22T10:40:46.773Z,0.80
2022-09-22T10:41:50.029Z,0.80
2022-09-22T10:42:57.744Z,0.88
2022-09-22T10:46:23.114Z,0.65
2022-09-22T10:47:36.000Z,1.00
2022-09-22T10:48:54.018Z,0.70
2022-09-22T10:50:24.303Z,1.00
2022-09-22T10:51:55.533Z,1.20
2022-09-22T10:53:32.587Z,1.15
2022-09-22T10:54:58.129Z,1.05
2022-09-22T10:56:37.603Z,0.80
2022-09-22T10:58:15.236Z,1.10
2022-09-22T11:00:18.428Z,1.10
2022-09-22T11:01:36.767Z,1.05
2022-09-22T11:03:16.982Z,1.23
2022-09-22T11:04:34.759Z,1.13
2022-09-22T11:06:51.242Z,1.10
2022-09-22T11:08:29.056Z,0.85
2022-09-22T11:10:45.725Z,0.95
2022-09-22T11:12:19.050Z,1.00
2022-09-22T11:13:54.150Z,1.10
2022-09-22T11:15:20.599Z,1.15
2022-09-22T11:16:35.587Z,1.02
2022-09-22T11:18:05.223Z,1.05
2022-09-22T11:19:33.977Z,0.93
2022-09-22T11:20:45.171Z,1.08
2022-09-22T11:22:27.503Z,1.10
2022-09-22T11:24:31.072Z,1.00
2022-09-22T11:26:04.924Z,1.02
2022-09-22T11:27:25.056Z,1.20
2022-09-22T11:28:58.591Z,1.10
2022-09-22T11:30:20.469Z,1.20
2022-09-22T11:31:47.197Z,0.98
2022-09-22T11:33:39.858Z,0.82
2022-09-22T11:35:09.953Z,1.05
2022-09-22T11:36:48.073Z,0.98
2022-09-22T11:38:13.171Z,0.85
2022-09-22T11:39:25.537Z,0.90
2022-09-22T11:40:53.783Z,1.10
2022-09-22T11:42:21.372Z,1.27
2022-09-22T11:43:59.363Z,1.25
2022-09-22T11:45:19.471Z,1.10
2022-09-22T11:46:44.065Z,1.25
2022-09-22T11:48:07.377Z,1.10
2022-09-22T11:49:42.694Z,1.20
2022-09-22T11:51:09.534Z,1.20
2022-09-22T11:52:43.287Z,0.98
2022-09-22T11:54:08.934Z,1.20
2022-09-22T11:55:51.517Z,1.25
2022-09-22T11:57:01.607Z,1.00
2022-09-22T11:58:20.627Z,1.52
2022-09-22T11:59:49.431Z,1.40
2022-09-22T12:01:13.082Z,1.00
2022-09-22T12:02:49.032Z,1.00
2022-09-22T12:04:27.878Z,1.40
2022-09-22T12:06:03.941Z,1.23
2022-09-22T12:07:28.701Z,1.27
2022-09-22T12:09:04.475Z,1.30
2022-09-22T12:10:26.021Z,1.17
2022-09-22T12:11:31.484Z,1.40
2022-09-22T12:12:35.193Z,1.15
2022-09-22T12:13:46.044Z,1.48
2022-09-22T12:16:21.350Z,1.23
2022-09-22T12:18:10.919Z,1.08
2022-09-22T12:19:40.444Z,1.15
2022-09-22T12:21:03.023Z,1.25
2022-09-22T12:22:44.806Z,1.30
2022-09-22T12:23:52.191Z,1.30
2022-09-22T12:24:55.205Z,1.45
2022-09-22T12:26:08.166Z,1.30
2022-09-22T12:27:21.125Z,1.35
2022-09-22T12:28:30.468Z,1.08
2022-09-22T12:29:33.789Z,1.10
2022-09-22T12:30:36.615Z,1.23
2022-09-22T12:31:41.814Z,1.30
2022-09-22T12:32:45.882Z,1.20
2022-09-22T12:33:53.804Z,1.08
2022-09-22T12:34:59.171Z,0.80
2022-09-22T12:36:03.908Z,1.08
2022-09-22T12:37:11.380Z,1.00
2022-09-22T12:38:14.230Z,0.90
2022-09-22T12:39:32.101Z,1.10
2022-09-22T12:40:38.123Z,1.05
2022-09-22T12:42:02.733Z,0.85
2022-09-22T12:43:06.508Z,1.00
2022-09-22T12:44:26.763Z,1.10
2022-09-22T12:45:38.167Z,1.00
2022-09-22T12:46:43.541Z,1.30
2022-09-22T12:47:53.320Z,1.77
2022-09-22T12:48:56.434Z,1.15
2022-09-22T12:50:06.996Z,1.70
2022-09-22T12:51:24.765Z,1.10
2022-09-22T12:52:54.413Z,1.23
2022-09-22T12:54:22.040Z,1.00
2022-09-22T12:55:30.512Z,1.00
2022-09-22T12:56:53.360Z,0.90
2022-09-22T12:58:02.552Z,1.60
2022-09-22T12:59:40.134Z,1.10
2022-09-22T13:00:43.370Z,1.35
2022-09-22T13:01:46.729Z,1.35
2022-09-22T13:02:50.420Z,1.20
2022-09-22T13:04:04.301Z,1.20
2022-09-22T13:05:27.157Z,1.10
2022-09-22T13:06:30.061Z,1.23
2022-09-22T13:07:36.424Z,0.95
2022-09-22T13:08:39.224Z,1.20
2022-09-22T13:09:42.149Z,1.20
2022-09-22T13:11:08.650Z,1.15
2022-09-22T13:12:12.073Z,1.30
2022-09-22T13:13:43.776Z,1.20
2022-09-22T13:15:07.668Z,1.15
2022-09-22T13:16:16.817Z,1.23
2022-09-22T13:17:50.406Z,0.90
2022-09-22T13:18:54.109Z,0.90
2022-09-22T13:19:57.047Z,1.38
2022-09-22T13:21:03.468Z,1.33
2022-09-22T13:22:17.981Z,0.95
2022-09-22T13:23:21.082Z,1.27
2022-09-22T13:24:27.510Z,1.45
2022-09-22T13:25:31.397Z,1.08
2022-09-22T13:26:41.923Z,1.73
2022-09-22T13:27:45.584Z,1.52
2022-09-22T13:29:21.676Z,1.27
2022-09-22T13:30:24.649Z,1.17
2022-09-22T13:31:27.723Z,1.17
2022-09-22T13:32:30.617Z,1.25
2022-09-22T13:33:35.924Z,1.20
2022-09-22T13:34:39.126Z,1.23
2022-09-22T13:35:44.255Z,1.20
2022-09-22T13:36:48.704Z,1.40
2022-09-22T13:37:54.910Z,1.05
2022-09-22T13:38:59.135Z,1.40
2022-09-22T13:40:03.250Z,0.90
2022-09-22T13:41:29.687Z,1.27
2022-09-22T13:42:33.601Z,1.20
2022-09-22T13:43:40.327Z,1.10
2022-09-22T13:44:48.348Z,1.33
2022-09-22T13:45:52.336Z,1.00
2022-09-22T13:46:57.440Z,1.02
2022-09-22T13:48:10.318Z,1.50
2022-09-22T13:49:27.204Z,1.50
2022-09-22T13:50:30.241Z,1.00
2022-09-22T13:51:33.111Z,1.17
2022-09-22T13:52:38.650Z,1.42
2022-09-22T13:53:51.484Z,1.17
2022-09-22T13:55:14.933Z,1.17
2022-09-22T13:56:22.016Z,1.10
2022-09-22T13:57:31.622Z,1.27
2022-09-22T13:58:41.473Z,1.30
2022-09-22T13:59:44.581Z,1.33
2022-09-22T14:01:12.607Z,1.42
2022-09-22T14:02:28.206Z,1.50
2022-09-22T14:03:38.413Z,1.17
2022-09-22T14:04:53.481Z,0.93
2022-09-22T14:05:57.596Z,1.20
2022-09-22T14:07:08.542Z,1.20
2022-09-22T14:08:20.121Z,1.15
2022-09-22T14:09:25.924Z,1.30
2022-09-22T14:10:28.991Z,1.02
2022-09-22T14:11:33.232Z,1.23
2022-09-22T14:12:36.513Z,1.40
2022-09-22T14:13:52.753Z,1.08
2022-09-22T14:14:56.433Z,1.17
2022-09-22T14:16:25.593Z,1.25
2022-09-22T14:17:30.540Z,1.20
2022-09-22T14:18:46.092Z,1.10
2022-09-22T14:20:08.828Z,1.15
2022-09-22T14:21:12.375Z,1.13
2022-09-22T14:22:27.125Z,0.95
2022-09-22T14:23:32.592Z,1.02
2022-09-22T14:24:37.807Z,0.98
2022-09-22T14:25:41.216Z,1.02
2022-09-22T14:27:03.036Z,1.02
2022-09-22T14:28:16.670Z,0.85
2022-09-22T14:29:31.915Z,0.88
2022-09-22T14:30:35.199Z,1.52
2022-09-22T14:31:46.014Z,1.17
2022-09-22T14:32:57.534Z,1.05
2022-09-22T14:34:03.168Z,1.50
2022-09-22T14:35:16.706Z,1.10
2022-09-22T14:36:24.705Z,1.27
2022-09-22T14:37:32.355Z,1.10
2022-09-22T14:38:43.113Z,1.20
2022-09-22T14:39:50.839Z,1.15
2022-09-22T14:40:58.829Z,1.40
2022-09-22T14:42:21.328Z,1.70
2022-09-22T14:43:33.369Z,1.48
2022-09-22T14:44:43.257Z,2.03
2022-09-22T14:46:07.393Z,1.65
2022-09-22T14:47:19.532Z,1.70
2022-09-22T14:48:33.947Z,1.45
2022-09-22T14:49:44.574Z,1.42
2022-09-22T14:51:08.324Z,1.65
2022-09-22T14:52:30.472Z,1.48
2022-09-22T14:53:56.939Z,1.55
2022-09-22T14:55:35.969Z,2.08
2022-09-22T14:56:43.980Z,1.60
2022-09-22T14:57:49.774Z,1.88
2022-09-22T14:58:59.115Z,1.70
2022-09-22T15:00:21.483Z,1.60
2022-09-22T15:01:51.063Z,1.83
2022-09-22T15:02:55.688Z,1.67
2022-09-22T15:04:10.966Z,1.90
2022-09-22T15:05:34.305Z,1.80
2022-09-22T15:06:39.868Z,1.75
2022-09-22T15:07:48.575Z,1.88
2022-09-22T15:08:52.885Z,2.33
2022-09-22T15:10:05.170Z,2.47
2022-09-22T15:11:08.088Z,2.15
2022-09-22T15:12:40.893Z,2.25
2022-09-22T15:13:47.005Z,2.17
2022-09-22T15:14:58.472Z,1.92
2022-09-22T15:16:01.777Z,2.15
2022-09-22T15:17:51.871Z,2.25
2022-09-22T15:18:55.393Z,2.00
2022-09-22T15:19:59.360Z,2.15
2022-09-22T15:21:13.488Z,2.28
2022-09-22T15:22:16.755Z,2.05
2022-09-22T15:23:44.791Z,2.00
2022-09-22T15:24:48.845Z,1.60
2022-09-22T15:25:53.969Z,1.58
2022-09-22T15:27:00.107Z,1.90
2022-09-22T15:28:11.256Z,1.52
2022-09-22T15:29:17.344Z,2.08
2022-09-22T15:30:22.432Z,2.10
2022-09-22T15:31:29.742Z,2.53
2022-09-22T15:32:33.110Z,2.20
2022-09-22T15:33:35.952Z,2.80
2022-09-22T15:34:43.699Z,2.40
2022-09-22T15:35:52.193Z,3.30
2022-09-22T15:36:57.430Z,2.85
2022-09-22T15:38:01.086Z,2.92
2022-09-22T15:39:16.379Z,2.08
2022-09-22T15:40:22.128Z,2.00
2022-09-22T15:41:25.196Z,2.55
2022-09-22T15:42:28.682Z,1.90
2022-09-22T15:43:32.270Z,2.20
2022-09-22T15:44:35.138Z,2.25
2022-09-22T15:45:39.366Z,1.95
2022-09-22T15:46:43.786Z,2.10
2022-09-22T15:47:49.637Z,1.63
2022-09-22T15:48:52.848Z,1.52
2022-09-22T15:49:57.264Z,2.33
2022-09-22T15:51:07.092Z,1.92
2022-09-22T15:52:11.456Z,2.00